EDT,Max TemperatureF,Mean TemperatureF,Min TemperatureF,Max Dew PointF,MeanDew PointF,Min DewpointF,Max Humidity, Mean Humidity, Min Humidity, Max Sea Level PressureIn, Mean Sea Level PressureIn, Min Sea Level PressureIn, Max VisibilityMiles, Mean VisibilityMiles, Min VisibilityMiles, Max Wind SpeedMPH, Mean Wind SpeedMPH, Max Gust SpeedMPH,PrecipitationIn, CloudCover, Events, WindDirDegrees
2013-5-1,82,78,74,75,72,70,93,84,74,29.99,29.95,29.90,10,9,3,16,9,21,0.34,4,Rain,82
2013-5-2,80,75,70,73,70,64,97,86,74,29.94,29.89,29.82,10,6,0,35,10,47,4.14,6,Fog-Rain-Thunderstorm,72
2013-5-3,83,77,70,73,70,66,90,78,65,29.83,29.78,29.73,10,10,3,22,8,29,0.03,3,Rain,276
2013-5-4,81,78,74,70,68,60,82,71,60,29.88,29.81,29.75,10,10,10,21,13,26,0.00,4,,311
2013-5-5,77,75,72,62,60,57,68,63,57,29.99,29.92,29.84,10,10,10,20,13,30,0.00,2,,320
2013-5-6,80,76,71,64,61,59,68,61,54,30.06,30.01,29.96,10,10,10,14,8,20,0.00,0,,313
2013-5-7,81,77,72,66,65,63,79,71,62,30.10,30.04,29.99,10,10,10,10,5,13,0.00,2,,287
2013-5-8,82,77,71,68,66,64,79,69,58,30.15,30.11,30.07,10,10,10,13,5,16,0.00,1,,62
2013-5-9,85,80,75,75,70,66,85,73,61,30.14,30.11,30.06,10,10,10,17,8,21,0.00,1,,67
2013-5-10,86,82,78,76,74,72,85,77,69,30.12,30.07,30.02,10,10,10,13,8,20,0.00,1,,123
2013-5-11,86,83,80,75,74,72,85,77,69,30.07,30.04,30.01,10,10,10,16,10,23,0.00,0,,134
2013-5-12,84,82,79,74,72,70,85,75,65,30.07,30.03,29.99,10,10,10,20,8,22,0.00,1,,131
2013-5-13,85,82,78,76,73,70,85,75,65,30.12,30.08,30.01,10,10,5,15,7,22,0.04,3,Rain,343
2013-5-14,85,81,77,72,67,62,79,69,58,30.15,30.11,30.06,10,10,10,21,12,26,0.00,3,,51
2013-5-15,84,80,75,68,64,62,69,62,54,30.16,30.12,30.08,10,10,10,21,11,25,T,2,,76
2013-5-16,84,81,77,68,67,65,69,64,58,30.10,30.05,30.01,10,10,10,21,13,25,0.00,3,,103
2013-5-17,86,81,76,74,72,67,82,74,65,30.09,30.05,30.02,10,10,10,14,8,20,T,3,,94
2013-5-18,87,84,80,74,73,72,79,72,65,30.10,30.07,30.03,10,10,10,14,10,17,0.00,1,,112
2013-5-19,87,83,79,73,72,70,74,68,61,30.09,30.05,29.99,10,10,10,15,11,23,0.00,1,,108
2013-5-20,87,83,79,75,72,69,74,70,65,30.05,30.01,29.98,10,10,10,16,9,22,0.00,0,,101
2013-5-21,87,81,75,75,73,70,85,75,65,30.00,29.95,29.91,10,10,4,18,10,23,0.08,3,Rain,118
2013-5-22,88,85,81,76,74,72,79,74,68,29.97,29.93,29.89,10,10,9,14,7,17,0.00,2,,203
2013-5-23,88,84,80,76,74,72,79,72,65,30.04,29.99,29.94,10,10,10,14,6,17,0.00,2,,273
2013-5-24,88,83,78,75,73,70,85,73,61,30.09,30.04,29.99,10,10,10,12,6,15,0.00,2,,349
2013-5-25,89,84,78,75,72,66,91,73,55,30.13,30.08,30.04,10,10,3,22,9,26,0.11,2,Rain,79
2013-5-26,89,84,79,69,67,63,71,58,45,30.15,30.11,30.07,10,10,10,20,11,28,0.00,2,,81
2013-5-27,86,82,78,74,71,66,85,73,61,30.11,30.06,30.02,10,10,10,25,13,32,0.05,3,,86
2013-5-28,84,79,74,74,73,71,85,80,74,30.07,30.03,30.00,10,8,1,25,14,32,2.40,6,Rain-Thunderstorm,114
2013-5-29,81,78,74,75,73,70,94,85,76,30.05,30.01,29.96,10,8,0,23,9,29,1.65,6,Fog-Rain-Thunderstorm,105
2013-5-30,85,80,75,76,74,71,88,81,74,30.02,29.99,29.96,10,10,10,15,7,18,0.00,4,,95
2013-5-31,86,83,79,77,74,72,91,81,70,30.03,30.00,29.97,10,10,10,15,8,18,0.00,3,,107